sensor_id;sensor_type;location;lat;lon;timestamp;pressure;altitude;pressure_sealevel;temperature;humidity
6224;BME280;3145;42.726;23.342;2024-01-25T00:02:17;74019.72;;;-142.70;70.51
6224;BME280;3145;42.726;23.342;2024-01-25T00:04:44;74011.66;;;-142.70;70.50
6224;BME280;3145;42.726;23.342;2024-01-25T00:07:11;73999.56;;;-142.70;70.33
6224;BME280;3145;42.726;23.342;2024-01-25T00:09:39;73987.47;;;-142.70;69.94
6224;BME280;3145;42.726;23.342;2024-01-25T00:12:06;73977.41;;;-142.70;70.31
6224;BME280;3145;42.726;23.342;2024-01-25T00:14:33;73977.41;;;-142.70;70.64
6224;BME280;3145;42.726;23.342;2024-01-25T00:16:59;73957.25;;;-142.70;71.00
6224;BME280;3145;42.726;23.342;2024-01-25T00:19:26;73965.31;;;-142.70;70.73
6224;BME280;3145;42.726;23.342;2024-01-25T00:21:53;73995.53;;;-142.70;70.78
6224;BME280;3145;42.726;23.342;2024-01-25T00:24:19;74003.59;;;-142.70;70.52
6224;BME280;3145;42.726;23.342;2024-01-25T00:26:47;74005.63;;;-142.70;70.49
6224;BME280;3145;42.726;23.342;2024-01-25T00:29:14;73991.50;;;-142.70;70.50
6224;BME280;3145;42.726;23.342;2024-01-25T00:31:41;73991.50;;;-142.70;70.24
6224;BME280;3145;42.726;23.342;2024-01-25T00:34:09;73979.41;;;-142.70;70.20
6224;BME280;3145;42.726;23.342;2024-01-25T00:36:36;73961.28;;;-142.70;70.00
6224;BME280;3145;42.726;23.342;2024-01-25T00:39:03;73937.09;;;-142.70;70.07
6224;BME280;3145;42.726;23.342;2024-01-25T00:41:32;73927.00;;;-142.70;69.99
6224;BME280;3145;42.726;23.342;2024-01-25T00:44:01;73935.06;;;-142.70;70.33
6224;BME280;3145;42.726;23.342;2024-01-25T00:46:28;73935.06;;;-142.70;70.40
6224;BME280;3145;42.726;23.342;2024-01-25T00:48:55;73935.06;;;-142.70;70.08
6224;BME280;3145;42.726;23.342;2024-01-25T00:51:23;73929.03;;;-142.70;70.28
6224;BME280;3145;42.726;23.342;2024-01-25T00:53:50;73939.09;;;-142.70;70.07
6224;BME280;3145;42.726;23.342;2024-01-25T00:56:17;73959.25;;;-142.70;69.87
6224;BME280;3145;42.726;23.342;2024-01-25T00:58:44;73963.28;;;-142.70;69.72
6224;BME280;3145;42.726;23.342;2024-01-25T01:01:13;73969.34;;;-142.70;70.02
6224;BME280;3145;42.726;23.342;2024-01-25T01:03:40;73963.28;;;-142.70;70.02
6224;BME280;3145;42.726;23.342;2024-01-25T01:06:08;73951.19;;;-142.70;69.75
6224;BME280;3145;42.726;23.342;2024-01-25T01:08:36;73945.16;;;-142.70;69.39
6224;BME280;3145;42.726;23.342;2024-01-25T01:11:03;73941.13;;;-142.70;69.28
6224;BME280;3145;42.726;23.342;2024-01-25T01:13:30;73929.03;;;-142.70;69.21
6224;BME280;3145;42.726;23.342;2024-01-25T01:15:57;73935.06;;;-142.70;69.27
6224;BME280;3145;42.726;23.342;2024-01-25T01:18:25;73935.06;;;-142.70;68.96
6224;BME280;3145;42.726;23.342;2024-01-25T01:20:51;73947.16;;;-142.70;69.37
6224;BME280;3145;42.726;23.342;2024-01-25T01:23:18;73939.09;;;-142.70;69.53
6224;BME280;3145;42.726;23.342;2024-01-25T01:25:45;73918.97;;;-142.70;69.66
6224;BME280;3145;42.726;23.342;2024-01-25T01:28:12;73925.00;;;-142.70;69.57
6224;BME280;3145;42.726;23.342;2024-01-25T01:30:38;73918.97;;;-142.70;69.72
6224;BME280;3145;42.726;23.342;2024-01-25T01:33:07;73908.88;;;-142.70;69.79
6224;BME280;3145;42.726;23.342;2024-01-25T01:35:36;73910.91;;;-142.70;69.48
6224;BME280;3145;42.726;23.342;2024-01-25T01:38:03;73906.88;;;-142.70;69.27
6224;BME280;3145;42.726;23.342;2024-01-25T01:40:29;73918.97;;;-142.70;69.38
6224;BME280;3145;42.726;23.342;2024-01-25T01:43:00;73945.16;;;-142.70;70.01
6224;BME280;3145;42.726;23.342;2024-01-25T01:45:27;73963.28;;;-142.70;70.54
6224;BME280;3145;42.726;23.342;2024-01-25T01:47:54;73967.31;;;-142.70;71.14
6224;BME280;3145;42.726;23.342;2024-01-25T01:50:21;73965.31;;;-142.70;71.94
6224;BME280;3145;42.726;23.342;2024-01-25T01:52:50;73963.28;;;-142.70;71.96
6224;BME280;3145;42.726;23.342;2024-01-25T01:55:18;73953.22;;;-142.70;72.20
6224;BME280;3145;42.726;23.342;2024-01-25T01:57:45;73951.19;;;-142.70;72.26
6224;BME280;3145;42.726;23.342;2024-01-25T02:00:15;73947.16;;;-142.70;72.37
6224;BME280;3145;42.726;23.342;2024-01-25T02:02:42;73937.09;;;-142.70;72.46
6224;BME280;3145;42.726;23.342;2024-01-25T02:05:09;73923.00;;;-142.70;72.46
6224;BME280;3145;42.726;23.342;2024-01-25T02:07:37;73923.00;;;-142.70;72.21
6224;BME280;3145;42.726;23.342;2024-01-25T02:10:08;73931.06;;;-142.70;72.51
6224;BME280;3145;42.726;23.342;2024-01-25T02:12:35;73918.97;;;-142.70;72.27
6224;BME280;3145;42.726;23.342;2024-01-25T02:15:02;73939.09;;;-142.70;72.41
6224;BME280;3145;42.726;23.342;2024-01-25T02:17:30;73943.13;;;-142.70;72.82
6224;BME280;3145;42.726;23.342;2024-01-25T02:19:57;73935.06;;;-142.70;72.76
6224;BME280;3145;42.726;23.342;2024-01-25T02:22:25;73935.06;;;-142.70;73.10
6224;BME280;3145;42.726;23.342;2024-01-25T02:24:51;73920.97;;;-142.70;73.17
6224;BME280;3145;42.726;23.342;2024-01-25T02:27:18;73902.84;;;-142.70;73.16
6224;BME280;3145;42.726;23.342;2024-01-25T02:29:45;73902.84;;;-142.70;73.22
6224;BME280;3145;42.726;23.342;2024-01-25T02:32:12;73886.72;;;-142.70;73.20
6224;BME280;3145;42.726;23.342;2024-01-25T02:34:38;73890.75;;;-142.70;73.11
6224;BME280;3145;42.726;23.342;2024-01-25T02:37:05;73892.75;;;-142.70;72.93
6224;BME280;3145;42.726;23.342;2024-01-25T02:39:33;73898.81;;;-142.70;72.80
6224;BME280;3145;42.726;23.342;2024-01-25T02:42:00;73896.78;;;-142.70;72.34
6224;BME280;3145;42.726;23.342;2024-01-25T02:44:27;73886.72;;;-142.70;72.20
6224;BME280;3145;42.726;23.342;2024-01-25T02:46:55;73882.69;;;-142.70;72.01
6224;BME280;3145;42.726;23.342;2024-01-25T02:49:21;73862.53;;;-142.70;72.07
6224;BME280;3145;42.726;23.342;2024-01-25T02:51:49;73856.47;;;-142.70;71.56
6224;BME280;3145;42.726;23.342;2024-01-25T02:54:16;73850.44;;;-142.70;71.40
6224;BME280;3145;42.726;23.342;2024-01-25T02:56:44;73846.41;;;-142.70;71.10
6224;BME280;3145;42.726;23.342;2024-01-25T02:59:11;73844.38;;;-142.70;70.97
6224;BME280;3145;42.726;23.342;2024-01-25T03:01:40;73842.38;;;-142.70;70.17
6224;BME280;3145;42.726;23.342;2024-01-25T03:04:07;73838.34;;;-142.70;70.04
6224;BME280;3145;42.726;23.342;2024-01-25T03:06:33;73834.31;;;-142.70;70.20
6224;BME280;3145;42.726;23.342;2024-01-25T03:09:00;73834.31;;;-142.70;70.20
6224;BME280;3145;42.726;23.342;2024-01-25T03:11:29;73830.28;;;-142.70;70.20
6224;BME280;3145;42.726;23.342;2024-01-25T03:13:56;73842.38;;;-142.70;70.48
6224;BME280;3145;42.726;23.342;2024-01-25T03:16:23;73838.34;;;-142.70;70.71
6224;BME280;3145;42.726;23.342;2024-01-25T03:18:50;73838.34;;;-142.70;71.16
6224;BME280;3145;42.726;23.342;2024-01-25T03:21:17;73830.28;;;-142.70;72.38
6224;BME280;3145;42.726;23.342;2024-01-25T03:23:43;73804.09;;;-142.70;72.97
6224;BME280;3145;42.726;23.342;2024-01-25T03:26:10;73769.81;;;-142.70;73.27
6224;BME280;3145;42.726;23.342;2024-01-25T03:28:37;73761.75;;;-142.70;72.93
6224;BME280;3145;42.726;23.342;2024-01-25T03:31:06;73733.56;;;-142.70;72.78
6224;BME280;3145;42.726;23.342;2024-01-25T03:33:33;73717.44;;;-142.70;71.73
6224;BME280;3145;42.726;23.342;2024-01-25T03:36:01;73689.22;;;-142.70;71.61
6224;BME280;3145;42.726;23.342;2024-01-25T03:38:28;73661.00;;;-142.70;70.53
6224;BME280;3145;42.726;23.342;2024-01-25T03:40:55;73630.78;;;-142.70;69.95
6224;BME280;3145;42.726;23.342;2024-01-25T03:43:23;73612.63;;;-142.70;69.83
6224;BME280;3145;42.726;23.342;2024-01-25T03:45:50;73600.56;;;-142.70;69.09
6224;BME280;3145;42.726;23.342;2024-01-25T03:48:18;73596.53;;;-142.70;69.25
6224;BME280;3145;42.726;23.342;2024-01-25T03:50:45;73592.50;;;-142.70;68.64
6224;BME280;3145;42.726;23.342;2024-01-25T03:53:12;73592.50;;;-142.70;68.52
6224;BME280;3145;42.726;23.342;2024-01-25T03:55:38;73588.47;;;-142.70;68.42
6224;BME280;3145;42.726;23.342;2024-01-25T03:58:05;73598.53;;;-142.70;68.08
6224;BME280;3145;42.726;23.342;2024-01-25T04:00:32;73590.47;;;-142.70;67.57
6224;BME280;3145;42.726;23.342;2024-01-25T04:02:58;73588.47;;;-142.70;67.22
6224;BME280;3145;42.726;23.342;2024-01-25T04:05:26;73596.53;;;-142.70;66.99
6224;BME280;3145;42.726;23.342;2024-01-25T04:07:53;73600.56;;;-142.70;66.35
6224;BME280;3145;42.726;23.342;2024-01-25T04:10:20;73596.53;;;-142.70;66.73
6224;BME280;3145;42.726;23.342;2024-01-25T04:12:46;73588.47;;;-142.70;66.82
6224;BME280;3145;42.726;23.342;2024-01-25T04:15:13;73586.44;;;-142.70;66.70
6224;BME280;3145;42.726;23.342;2024-01-25T04:17:40;73588.47;;;-142.70;66.50
6224;BME280;3145;42.726;23.342;2024-01-25T04:20:07;73594.50;;;-142.70;66.27
6224;BME280;3145;42.726;23.342;2024-01-25T04:22:36;73596.53;;;-142.70;66.65
6224;BME280;3145;42.726;23.342;2024-01-25T04:25:03;73588.47;;;-142.70;66.49
6224;BME280;3145;42.726;23.342;2024-01-25T04:27:30;73596.53;;;-142.70;66.27
6224;BME280;3145;42.726;23.342;2024-01-25T04:29:56;73592.50;;;-142.70;66.64
6224;BME280;3145;42.726;23.342;2024-01-25T04:32:23;73590.47;;;-142.70;66.17
6224;BME280;3145;42.726;23.342;2024-01-25T04:34:50;73586.44;;;-142.70;65.82
6224;BME280;3145;42.726;23.342;2024-01-25T04:37:16;73600.56;;;-142.70;65.64
6224;BME280;3145;42.726;23.342;2024-01-25T04:39:44;73608.59;;;-142.70;65.87
6224;BME280;3145;42.726;23.342;2024-01-25T04:42:11;73608.59;;;-142.70;65.32
6224;BME280;3145;42.726;23.342;2024-01-25T04:44:38;73620.69;;;-142.70;65.93
6224;BME280;3145;42.726;23.342;2024-01-25T04:47:04;73620.69;;;-142.70;65.24
6224;BME280;3145;42.726;23.342;2024-01-25T04:49:31;73624.72;;;-142.70;65.57
6224;BME280;3145;42.726;23.342;2024-01-25T04:51:58;73628.75;;;-142.70;65.47
6224;BME280;3145;42.726;23.342;2024-01-25T04:54:26;73628.75;;;-142.70;64.96
6224;BME280;3145;42.726;23.342;2024-01-25T04:56:54;73632.78;;;-142.70;65.10
6224;BME280;3145;42.726;23.342;2024-01-25T04:59:21;73636.81;;;-142.70;64.78
6224;BME280;3145;42.726;23.342;2024-01-25T05:01:47;73632.78;;;-142.70;64.91
6224;BME280;3145;42.726;23.342;2024-01-25T05:04:15;73638.84;;;-142.70;64.82
6224;BME280;3145;42.726;23.342;2024-01-25T05:06:42;73632.78;;;-142.70;64.56
6224;BME280;3145;42.726;23.342;2024-01-25T05:09:09;73626.75;;;-142.70;64.51
6224;BME280;3145;42.726;23.342;2024-01-25T05:11:38;73616.66;;;-142.70;64.43
6224;BME280;3145;42.726;23.342;2024-01-25T05:14:06;73614.66;;;-142.70;64.21
6224;BME280;3145;42.726;23.342;2024-01-25T05:16:33;73620.69;;;-142.70;64.11
6224;BME280;3145;42.726;23.342;2024-01-25T05:19:00;73628.75;;;-142.70;63.16
6224;BME280;3145;42.726;23.342;2024-01-25T05:21:27;73628.75;;;-142.70;63.60
6224;BME280;3145;42.726;23.342;2024-01-25T05:23:53;73632.78;;;-142.70;63.48
6224;BME280;3145;42.726;23.342;2024-01-25T05:26:20;73632.78;;;-142.70;63.42
6224;BME280;3145;42.726;23.342;2024-01-25T05:28:47;73632.78;;;-142.70;63.17
6224;BME280;3145;42.726;23.342;2024-01-25T05:31:15;73636.81;;;-142.70;63.10
6224;BME280;3145;42.726;23.342;2024-01-25T05:33:42;73636.81;;;-142.70;62.61
6224;BME280;3145;42.726;23.342;2024-01-25T05:36:09;73628.75;;;-142.70;62.95
6224;BME280;3145;42.726;23.342;2024-01-25T05:38:36;73634.81;;;-142.70;62.95
6224;BME280;3145;42.726;23.342;2024-01-25T05:41:03;73638.84;;;-142.70;62.75
6224;BME280;3145;42.726;23.342;2024-01-25T05:43:29;73634.81;;;-142.70;62.71
6224;BME280;3145;42.726;23.342;2024-01-25T05:45:56;73632.78;;;-142.70;62.57
6224;BME280;3145;42.726;23.342;2024-01-25T05:48:24;73632.78;;;-142.70;61.95
6224;BME280;3145;42.726;23.342;2024-01-25T05:50:51;73644.88;;;-142.70;62.23
6224;BME280;3145;42.726;23.342;2024-01-25T05:53:18;73638.84;;;-142.70;61.89
6224;BME280;3145;42.726;23.342;2024-01-25T05:55:45;73624.72;;;-142.70;62.01
6224;BME280;3145;42.726;23.342;2024-01-25T05:58:12;73624.72;;;-142.70;62.24
6224;BME280;3145;42.726;23.342;2024-01-25T06:00:38;73628.75;;;-142.70;62.79
6224;BME280;3145;42.726;23.342;2024-01-25T06:03:05;73628.75;;;-142.70;62.32
6224;BME280;3145;42.726;23.342;2024-01-25T06:05:33;73630.78;;;-142.70;62.52
6224;BME280;3145;42.726;23.342;2024-01-25T06:08:00;73626.75;;;-142.70;62.88
6224;BME280;3145;42.726;23.342;2024-01-25T06:10:27;73630.78;;;-142.70;62.62
6224;BME280;3145;42.726;23.342;2024-01-25T06:12:53;73620.69;;;-142.70;62.45
6224;BME280;3145;42.726;23.342;2024-01-25T06:15:20;73626.75;;;-142.70;62.01
6224;BME280;3145;42.726;23.342;2024-01-25T06:17:47;73628.75;;;-142.70;62.37
6224;BME280;3145;42.726;23.342;2024-01-25T06:20:13;73624.72;;;-142.70;61.87
6224;BME280;3145;42.726;23.342;2024-01-25T06:22:42;73626.75;;;-142.70;61.59
6224;BME280;3145;42.726;23.342;2024-01-25T06:25:08;73630.78;;;-142.70;61.29
6224;BME280;3145;42.726;23.342;2024-01-25T06:27:35;73644.88;;;-142.70;61.65
6224;BME280;3145;42.726;23.342;2024-01-25T06:30:02;73642.88;;;-142.70;61.40
6224;BME280;3145;42.726;23.342;2024-01-25T06:32:29;73636.81;;;-142.70;61.36
6224;BME280;3145;42.726;23.342;2024-01-25T06:34:56;73640.84;;;-142.70;61.55
6224;BME280;3145;42.726;23.342;2024-01-25T06:37:23;73636.81;;;-142.70;61.58
6224;BME280;3145;42.726;23.342;2024-01-25T06:39:51;73644.88;;;-142.70;61.48
6224;BME280;3145;42.726;23.342;2024-01-25T06:42:18;73638.84;;;-142.70;61.39
6224;BME280;3145;42.726;23.342;2024-01-25T06:44:44;73638.84;;;-142.70;61.92
6224;BME280;3145;42.726;23.342;2024-01-25T06:47:11;73632.78;;;-142.70;61.71
6224;BME280;3145;42.726;23.342;2024-01-25T06:49:38;73624.72;;;-142.70;61.73
6224;BME280;3145;42.726;23.342;2024-01-25T06:52:05;73612.63;;;-142.70;61.33
6224;BME280;3145;42.726;23.342;2024-01-25T06:54:32;73592.50;;;-142.70;61.34
6224;BME280;3145;42.726;23.342;2024-01-25T06:57:00;73588.47;;;-142.70;61.13
6224;BME280;3145;42.726;23.342;2024-01-25T06:59:28;73576.38;;;-142.70;60.13
6224;BME280;3145;42.726;23.342;2024-01-25T07:01:54;73576.38;;;-142.70;60.28
6224;BME280;3145;42.726;23.342;2024-01-25T07:04:21;73566.28;;;-142.70;59.84
6224;BME280;3145;42.726;23.342;2024-01-25T07:06:48;73564.28;;;-142.70;59.11
6224;BME280;3145;42.726;23.342;2024-01-25T07:09:15;73550.16;;;-142.70;58.87
6224;BME280;3145;42.726;23.342;2024-01-25T07:11:41;73538.09;;;-142.70;58.76
6224;BME280;3145;42.726;23.342;2024-01-25T07:14:09;73519.94;;;-142.70;58.01
6224;BME280;3145;42.726;23.342;2024-01-25T07:16:36;73511.88;;;-142.70;57.33
6224;BME280;3145;42.726;23.342;2024-01-25T07:19:03;73493.75;;;-142.70;57.20
6224;BME280;3145;42.726;23.342;2024-01-25T07:21:30;73487.69;;;-142.70;56.37
6224;BME280;3145;42.726;23.342;2024-01-25T07:23:58;73475.63;;;-142.70;56.60
6224;BME280;3145;42.726;23.342;2024-01-25T07:26:25;73465.53;;;-142.70;56.37
6224;BME280;3145;42.726;23.342;2024-01-25T07:28:52;73471.59;;;-142.70;55.62
6224;BME280;3145;42.726;23.342;2024-01-25T07:31:24;73465.53;;;-142.70;55.66
6224;BME280;3145;42.726;23.342;2024-01-25T07:33:51;73467.56;;;-142.70;55.72
6224;BME280;3145;42.726;23.342;2024-01-25T07:36:18;73471.59;;;-142.70;55.51
6224;BME280;3145;42.726;23.342;2024-01-25T07:38:45;73475.63;;;-142.70;55.09
6224;BME280;3145;42.726;23.342;2024-01-25T07:41:13;73471.59;;;-142.70;54.91
6224;BME280;3145;42.726;23.342;2024-01-25T07:43:40;73467.56;;;-142.70;55.09
6224;BME280;3145;42.726;23.342;2024-01-25T07:46:08;73459.50;;;-142.70;55.04
6224;BME280;3145;42.726;23.342;2024-01-25T07:48:36;73457.47;;;-142.70;54.82
6224;BME280;3145;42.726;23.342;2024-01-25T07:51:10;73447.41;;;-142.70;54.66
6224;BME280;3145;42.726;23.342;2024-01-25T07:53:37;73455.47;;;-142.70;54.69
6224;BME280;3145;42.726;23.342;2024-01-25T07:56:06;73437.31;;;-142.70;54.21
6224;BME280;3145;42.726;23.342;2024-01-25T07:58:33;73407.09;;;-142.70;53.99
6224;BME280;3145;42.726;23.342;2024-01-25T08:01:02;73338.59;;;-142.70;52.96
6224;BME280;3145;42.726;23.342;2024-01-25T08:03:29;73302.31;;;-142.70;51.27
6224;BME280;3145;42.726;23.342;2024-01-25T08:05:57;73296.28;;;-142.70;50.69
6224;BME280;3145;42.726;23.342;2024-01-25T08:08:24;73298.28;;;-142.70;50.62
6224;BME280;3145;42.726;23.342;2024-01-25T08:10:50;73302.31;;;-142.70;50.41
6224;BME280;3145;42.726;23.342;2024-01-25T08:13:17;73308.38;;;-142.70;50.32
6224;BME280;3145;42.726;23.342;2024-01-25T08:15:44;73310.38;;;-142.70;50.37
6224;BME280;3145;42.726;23.342;2024-01-25T08:18:11;73310.38;;;-142.70;50.13
6224;BME280;3145;42.726;23.342;2024-01-25T08:20:38;73316.44;;;-142.70;50.37
6224;BME280;3145;42.726;23.342;2024-01-25T08:23:06;73318.44;;;-142.70;50.45
6224;BME280;3145;42.726;23.342;2024-01-25T08:25:34;73346.66;;;-142.70;49.91
6224;BME280;3145;42.726;23.342;2024-01-25T08:28:01;73342.63;;;-142.70;50.24
6224;BME280;3145;42.726;23.342;2024-01-25T08:30:28;73348.66;;;-142.70;50.14
6224;BME280;3145;42.726;23.342;2024-01-25T08:32:55;73340.59;;;-142.70;50.36
6224;BME280;3145;42.726;23.342;2024-01-25T08:35:22;73344.63;;;-142.70;49.94
6224;BME280;3145;42.726;23.342;2024-01-25T08:37:49;73340.59;;;-142.70;49.87
6224;BME280;3145;42.726;23.342;2024-01-25T08:40:17;73342.63;;;-142.70;49.64
6224;BME280;3145;42.726;23.342;2024-01-25T08:42:44;73338.59;;;-142.70;49.53
6224;BME280;3145;42.726;23.342;2024-01-25T08:45:11;73358.75;;;-142.70;49.44
6224;BME280;3145;42.726;23.342;2024-01-25T08:47:38;73342.63;;;-142.70;49.64
6224;BME280;3145;42.726;23.342;2024-01-25T08:50:06;73326.50;;;-142.70;49.48
6224;BME280;3145;42.726;23.342;2024-01-25T08:52:35;73318.44;;;-142.70;48.65
6224;BME280;3145;42.726;23.342;2024-01-25T08:55:03;73314.41;;;-142.70;48.99
6224;BME280;3145;42.726;23.342;2024-01-25T08:57:32;73318.44;;;-142.70;48.87
6224;BME280;3145;42.726;23.342;2024-01-25T08:59:58;73304.34;;;-142.70;48.41
6224;BME280;3145;42.726;23.342;2024-01-25T09:02:26;73284.19;;;-142.70;48.35
6224;BME280;3145;42.726;23.342;2024-01-25T09:04:54;73292.25;;;-142.70;48.01
6224;BME280;3145;42.726;23.342;2024-01-25T09:07:22;73290.22;;;-142.70;48.15
6224;BME280;3145;42.726;23.342;2024-01-25T09:09:49;73298.28;;;-142.70;48.17
6224;BME280;3145;42.726;23.342;2024-01-25T09:12:15;73296.28;;;-142.70;48.35
6224;BME280;3145;42.726;23.342;2024-01-25T09:14:44;73217.69;;;-142.70;47.92
6224;BME280;3145;42.726;23.342;2024-01-25T09:17:10;73213.66;;;-142.70;46.97
6224;BME280;3145;42.726;23.342;2024-01-25T09:19:39;73209.63;;;-142.70;46.63
6224;BME280;3145;42.726;23.342;2024-01-25T09:22:06;73197.53;;;-142.70;46.60
6224;BME280;3145;42.726;23.342;2024-01-25T09:24:35;73189.47;;;-142.70;46.56
6224;BME280;3145;42.726;23.342;2024-01-25T09:27:05;73203.59;;;-142.70;46.37
6224;BME280;3145;42.726;23.342;2024-01-25T09:29:32;73199.56;;;-142.70;46.64
6224;BME280;3145;42.726;23.342;2024-01-25T09:32:00;73181.44;;;-142.70;46.50
6224;BME280;3145;42.726;23.342;2024-01-25T09:34:27;73169.34;;;-142.70;46.16
6224;BME280;3145;42.726;23.342;2024-01-25T09:36:54;73149.19;;;-142.70;45.89
6224;BME280;3145;42.726;23.342;2024-01-25T09:39:20;73110.91;;;-142.70;45.73
6224;BME280;3145;42.726;23.342;2024-01-25T09:41:47;73108.91;;;-142.70;45.60
6224;BME280;3145;42.726;23.342;2024-01-25T09:44:14;73088.75;;;-142.70;45.37
6224;BME280;3145;42.726;23.342;2024-01-25T09:46:43;73080.69;;;-142.70;45.16
6224;BME280;3145;42.726;23.342;2024-01-25T09:49:13;73090.75;;;-142.70;44.91
6224;BME280;3145;42.726;23.342;2024-01-25T09:51:41;73143.16;;;-142.70;45.38
6224;BME280;3145;42.726;23.342;2024-01-25T09:54:09;73145.16;;;-142.70;45.68
6224;BME280;3145;42.726;23.342;2024-01-25T09:56:36;73157.25;;;-142.70;45.82
6224;BME280;3145;42.726;23.342;2024-01-25T09:59:03;73165.31;;;-142.70;45.86
6224;BME280;3145;42.726;23.342;2024-01-25T10:01:30;73187.47;;;-142.70;46.26
6224;BME280;3145;42.726;23.342;2024-01-25T10:03:57;73205.59;;;-142.70;46.63
6224;BME280;3145;42.726;23.342;2024-01-25T10:06:25;73213.66;;;-142.70;47.01
6224;BME280;3145;42.726;23.342;2024-01-25T10:08:52;73221.72;;;-142.70;47.35
6224;BME280;3145;42.726;23.342;2024-01-25T10:11:19;73197.53;;;-142.70;47.40
6224;BME280;3145;42.726;23.342;2024-01-25T10:13:47;73189.47;;;-142.70;47.44
6224;BME280;3145;42.726;23.342;2024-01-25T10:16:17;73175.38;;;-142.70;47.11
6224;BME280;3145;42.726;23.342;2024-01-25T10:18:46;73157.25;;;-142.70;47.11
6224;BME280;3145;42.726;23.342;2024-01-25T10:21:14;73127.03;;;-142.70;46.91
6224;BME280;3145;42.726;23.342;2024-01-25T10:23:44;73114.94;;;-142.70;46.25
6224;BME280;3145;42.726;23.342;2024-01-25T10:26:10;73112.91;;;-142.70;46.27
6224;BME280;3145;42.726;23.342;2024-01-25T10:28:37;73098.81;;;-142.70;45.96
6224;BME280;3145;42.726;23.342;2024-01-25T10:31:04;73092.78;;;-142.70;46.03
6224;BME280;3145;42.726;23.342;2024-01-25T10:33:31;73100.84;;;-142.70;45.85
6224;BME280;3145;42.726;23.342;2024-01-25T10:35:58;73102.84;;;-142.70;46.06
6224;BME280;3145;42.726;23.342;2024-01-25T10:38:29;73086.72;;;-142.70;46.20
6224;BME280;3145;42.726;23.342;2024-01-25T10:40:59;73084.72;;;-142.70;46.04
6224;BME280;3145;42.726;23.342;2024-01-25T10:43:27;73072.63;;;-142.70;46.13
6224;BME280;3145;42.726;23.342;2024-01-25T10:45:56;73082.69;;;-142.70;46.30
6224;BME280;3145;42.726;23.342;2024-01-25T10:48:24;73080.69;;;-142.70;46.54
6224;BME280;3145;42.726;23.342;2024-01-25T10:50:51;73078.66;;;-142.70;46.38
6224;BME280;3145;42.726;23.342;2024-01-25T10:53:18;73076.66;;;-142.70;46.32
6224;BME280;3145;42.726;23.342;2024-01-25T10:55:46;73078.66;;;-142.70;46.41
6224;BME280;3145;42.726;23.342;2024-01-25T10:58:15;73088.75;;;-142.70;46.58
6224;BME280;3145;42.726;23.342;2024-01-25T11:00:50;73096.81;;;-142.70;46.70
6224;BME280;3145;42.726;23.342;2024-01-25T11:03:18;73100.84;;;-142.70;46.54
6224;BME280;3145;42.726;23.342;2024-01-25T11:05:46;73098.81;;;-142.70;46.43
6224;BME280;3145;42.726;23.342;2024-01-25T11:08:18;73096.81;;;-142.70;46.61
6224;BME280;3145;42.726;23.342;2024-01-25T11:10:50;73084.72;;;-142.70;46.87
6224;BME280;3145;42.726;23.342;2024-01-25T11:13:23;73072.63;;;-142.70;46.31
6224;BME280;3145;42.726;23.342;2024-01-25T11:15:50;73074.63;;;-142.70;46.40
6224;BME280;3145;42.726;23.342;2024-01-25T11:18:17;73064.56;;;-142.70;46.16
6224;BME280;3145;42.726;23.342;2024-01-25T11:20:47;73066.59;;;-142.70;45.98
6224;BME280;3145;42.726;23.342;2024-01-25T11:23:15;73054.50;;;-142.70;46.43
6224;BME280;3145;42.726;23.342;2024-01-25T11:25:45;73044.41;;;-142.70;45.66
6224;BME280;3145;42.726;23.342;2024-01-25T11:28:13;73072.63;;;-142.70;46.03
6224;BME280;3145;42.726;23.342;2024-01-25T11:30:42;73078.66;;;-142.70;46.00
6224;BME280;3145;42.726;23.342;2024-01-25T11:33:09;73084.72;;;-142.70;45.89
6224;BME280;3145;42.726;23.342;2024-01-25T11:35:37;73094.78;;;-142.70;46.01
6224;BME280;3145;42.726;23.342;2024-01-25T11:38:04;73104.88;;;-142.70;46.02
6224;BME280;3145;42.726;23.342;2024-01-25T11:40:30;73125.00;;;-142.70;45.78
6224;BME280;3145;42.726;23.342;2024-01-25T11:42:57;73145.16;;;-142.70;46.18
6224;BME280;3145;42.726;23.342;2024-01-25T11:45:24;73157.25;;;-142.70;46.55
6224;BME280;3145;42.726;23.342;2024-01-25T11:47:53;73165.31;;;-142.70;46.44
6224;BME280;3145;42.726;23.342;2024-01-25T11:50:20;73169.34;;;-142.70;46.43
6224;BME280;3145;42.726;23.342;2024-01-25T11:52:48;73173.38;;;-142.70;46.68
6224;BME280;3145;42.726;23.342;2024-01-25T11:55:15;73173.38;;;-142.70;46.48
6224;BME280;3145;42.726;23.342;2024-01-25T11:57:42;73163.28;;;-142.70;46.72
6224;BME280;3145;42.726;23.342;2024-01-25T12:00:12;73149.19;;;-142.70;46.49
6224;BME280;3145;42.726;23.342;2024-01-25T12:02:39;73149.19;;;-142.70;46.75
6224;BME280;3145;42.726;23.342;2024-01-25T12:05:10;73145.16;;;-142.70;46.58
6224;BME280;3145;42.726;23.342;2024-01-25T12:07:38;73139.13;;;-142.70;46.38
6224;BME280;3145;42.726;23.342;2024-01-25T12:10:06;73133.06;;;-142.70;46.61
6224;BME280;3145;42.726;23.342;2024-01-25T12:12:35;73133.06;;;-142.70;46.74
6224;BME280;3145;42.726;23.342;2024-01-25T12:15:05;73137.09;;;-142.70;46.89
6224;BME280;3145;42.726;23.342;2024-01-25T12:17:33;73145.16;;;-142.70;46.80
6224;BME280;3145;42.726;23.342;2024-01-25T12:20:02;73155.22;;;-142.70;46.83
6224;BME280;3145;42.726;23.342;2024-01-25T12:22:34;73157.25;;;-142.70;47.04
6224;BME280;3145;42.726;23.342;2024-01-25T12:25:00;73137.09;;;-142.70;47.02
6224;BME280;3145;42.726;23.342;2024-01-25T12:27:28;73108.91;;;-142.70;46.68
6224;BME280;3145;42.726;23.342;2024-01-25T12:29:56;73084.72;;;-142.70;46.32
6224;BME280;3145;42.726;23.342;2024-01-25T12:32:22;73054.50;;;-142.70;46.03
6224;BME280;3145;42.726;23.342;2024-01-25T12:34:53;73026.28;;;-142.70;45.59
6224;BME280;3145;42.726;23.342;2024-01-25T12:37:20;73012.19;;;-142.70;45.55
6224;BME280;3145;42.726;23.342;2024-01-25T12:39:48;72983.97;;;-142.70;45.83
6224;BME280;3145;42.726;23.342;2024-01-25T12:42:15;72969.88;;;-142.70;45.50
6224;BME280;3145;42.726;23.342;2024-01-25T12:44:42;72959.78;;;-142.70;45.05
6224;BME280;3145;42.726;23.342;2024-01-25T12:47:08;72951.75;;;-142.70;44.90
6224;BME280;3145;42.726;23.342;2024-01-25T12:49:35;72941.66;;;-142.70;44.87
6224;BME280;3145;42.726;23.342;2024-01-25T12:52:02;72945.69;;;-142.70;44.53